Time;durP1;ratioP1;P1;durP2;ratioP2;P2;SDS_P1;SDS_P2;PMS_P1;PMS_P2;Temp;Humidity;BMP_temperature;BMP_pressure;BME280_temperature;BME280_humidity;BME280_pressure;Samples;Min_cycle;Max_cycle;Signal;HPM_P1;HPM_P2
2021/03/06 00:02:25;;;;;;;7.60;6.10;;;6.60;49.70;;;;;;5072865;28;20434;-42
2021/03/06 00:04:51;;;;;;;15.07;8.17;;;6.50;49.30;;;;;;5074348;28;20746;-42
2021/03/06 00:07:16;;;;;;;11.10;7.30;;;6.50;49.40;;;;;;5073539;28;20194;-42
2021/03/06 00:09:42;;;;;;;10.77;8.20;;;6.40;49.80;;;;;;5053468;28;20219;-42
2021/03/06 00:12:07;;;;;;;8.73;6.60;;;6.20;50.00;;;;;;5072652;28;20201;-42
2021/03/06 00:14:33;;;;;;;9.77;6.53;;;6.10;50.40;;;;;;5067127;28;20203;-42
2021/03/06 00:17:00;;;;;;;9.07;6.20;;;6.10;50.40;;;;;;5068740;28;20282;-42
2021/03/06 00:19:26;;;;;;;6.40;5.20;;;6.20;50.10;;;;;;5066439;28;20204;-42
2021/03/06 00:21:51;;;;;;;10.90;6.70;;;6.20;49.70;;;;;;5074230;28;20453;-42
2021/03/06 00:24:17;;;;;;;7.00;5.93;;;6.20;49.50;;;;;;5066936;28;20426;-42
2021/03/06 00:26:43;;;;;;;7.10;5.60;;;6.30;49.10;;;;;;5074163;28;20695;-42
2021/03/06 00:29:08;;;;;;;9.00;6.20;;;6.30;48.70;;;;;;5073007;28;20616;-42
2021/03/06 00:31:38;;;;;;;7.53;5.33;;;6.30;48.40;;;;;;5072671;28;20235;-42
2021/03/06 00:34:05;;;;;;;7.17;5.17;;;6.30;48.20;;;;;;5073382;28;20191;-42
2021/03/06 00:36:31;;;;;;;8.40;5.17;;;6.30;47.90;;;;;;5067228;28;20438;-42
2021/03/06 00:38:56;;;;;;;7.27;5.10;;;6.30;47.90;;;;;;5073860;28;20469;-42
2021/03/06 00:41:22;;;;;;;6.10;4.50;;;6.20;47.90;;;;;;5072605;28;20945;-42
2021/03/06 00:43:48;;;;;;;5.50;4.30;;;6.20;47.70;;;;;;5072891;28;20222;-42
2021/03/06 00:46:14;;;;;;;6.83;5.20;;;6.10;47.60;;;;;;5070805;28;20199;-42
2021/03/06 00:48:40;;;;;;;9.80;5.03;;;6.00;47.80;;;;;;5066088;28;20251;-42
2021/03/06 00:51:06;;;;;;;6.97;4.80;;;6.00;47.80;;;;;;5059936;28;20472;-42
2021/03/06 00:53:36;;;;;;;7.87;4.77;;;6.00;47.70;;;;;;5064767;28;20199;-42
2021/03/06 00:56:01;;;;;;;6.60;4.80;;;5.90;47.70;;;;;;5071763;28;20800;-42
2021/03/06 00:58:27;;;;;;;5.60;4.30;;;5.90;47.60;;;;;;5048634;28;20438;-42
2021/03/06 01:00:53;;;;;;;5.10;4.60;;;5.90;47.40;;;;;;5072669;28;20188;-42
2021/03/06 01:03:18;;;;;;;5.17;4.10;;;5.80;47.30;;;;;;5073181;28;20206;-42
2021/03/06 01:05:44;;;;;;;5.20;4.17;;;5.70;47.40;;;;;;5056289;28;20220;-42
2021/03/06 01:08:10;;;;;;;6.33;4.73;;;5.60;47.40;;;;;;5068331;28;20262;-42
2021/03/06 01:10:38;;;;;;;4.43;4.03;;;5.50;47.30;;;;;;5071360;28;20196;-42
2021/03/06 01:13:05;;;;;;;7.00;4.27;;;5.40;47.50;;;;;;5070270;28;20192;-42
2021/03/06 01:15:31;;;;;;;6.90;4.80;;;5.50;47.50;;;;;;5066170;28;20501;-42
2021/03/06 01:17:57;;;;;;;7.00;4.47;;;5.70;47.20;;;;;;5067965;28;20469;-42
2021/03/06 01:20:22;;;;;;;6.57;4.53;;;5.80;46.90;;;;;;5072337;28;20439;-42
2021/03/06 01:22:48;;;;;;;5.30;3.70;;;5.90;46.60;;;;;;5067532;28;20551;-42
2021/03/06 01:25:14;;;;;;;5.77;4.40;;;5.90;46.50;;;;;;5071475;28;20192;-42
2021/03/06 01:27:40;;;;;;;5.00;4.20;;;6.00;47.10;;;;;;5065046;28;20443;-42
2021/03/06 01:30:06;;;;;;;7.30;4.97;;;6.00;47.50;;;;;;5053387;28;20489;-42
2021/03/06 01:32:32;;;;;;;6.47;4.43;;;6.00;47.40;;;;;;5065816;28;20195;-42
2021/03/06 01:34:58;;;;;;;7.20;5.77;;;6.00;47.30;;;;;;5066500;28;20431;-42
2021/03/06 01:37:23;;;;;;;6.60;4.17;;;6.00;47.40;;;;;;5071164;28;20192;-42
2021/03/06 01:39:49;;;;;;;7.70;5.00;;;6.00;47.60;;;;;;5067231;28;20231;-42
2021/03/06 01:42:16;;;;;;;6.30;5.10;;;6.00;47.80;;;;;;5072053;28;20192;-42
2021/03/06 01:44:42;;;;;;;7.83;5.30;;;6.00;47.80;;;;;;5072222;28;20648;-42
2021/03/06 01:47:07;;;;;;;8.83;6.20;;;6.00;48.00;;;;;;5071347;28;20483;-42
2021/03/06 01:49:33;;;;;;;6.83;5.10;;;6.00;48.00;;;;;;5062319;28;20231;-42
2021/03/06 01:51:59;;;;;;;6.10;5.33;;;6.00;48.00;;;;;;5071249;28;20584;-42
2021/03/06 01:54:26;;;;;;;4.97;4.57;;;6.00;48.20;;;;;;5065833;28;20192;-42
2021/03/06 01:56:53;;;;;;;5.70;5.10;;;6.00;48.30;;;;;;5066132;28;20636;-42
2021/03/06 01:59:19;;;;;;;6.40;5.17;;;6.00;48.30;;;;;;5069963;28;20485;-42
2021/03/06 02:01:45;;;;;;;7.17;4.93;;;6.00;48.10;;;;;;5071494;28;20441;-42
2021/03/06 02:04:10;;;;;;;5.77;4.83;;;6.00;47.80;;;;;;5065978;28;20443;-42
2021/03/06 02:06:36;;;;;;;5.60;4.40;;;6.00;47.60;;;;;;5068353;28;20525;-42
2021/03/06 02:09:03;;;;;;;7.23;5.20;;;6.00;47.50;;;;;;5067237;28;20188;-42
2021/03/06 02:12:07;;;;;;;4.93;4.43;;;6.00;47.90;;;;;;5066487;28;20452;-42
2021/03/06 02:14:58;;;;;;;7.57;5.20;;;6.00;48.30;;;;;;5060364;28;20447;-42
2021/03/06 02:17:57;;;;;;;5.13;4.47;;;6.00;48.30;;;;;;5071412;28;20519;-42
2021/03/06 02:20:38;;;;;;;5.60;4.60;;;6.00;48.10;;;;;;5066780;28;20438;-42
2021/03/06 02:23:25;;;;;;;5.10;4.10;;;6.00;47.70;;;;;;5071077;28;20964;-42
2021/03/06 02:26:12;;;;;;;4.63;4.00;;;6.00;47.50;;;;;;5071516;28;20452;-42
2021/03/06 02:28:47;;;;;;;5.80;5.03;;;6.00;47.90;;;;;;5066031;28;20525;-42
2021/03/06 02:31:15;;;;;;;5.60;4.80;;;6.00;47.10;;;;;;5069149;28;20485;-42
2021/03/06 02:33:44;;;;;;;4.93;3.77;;;5.90;47.10;;;;;;5065974;28;20518;-42
2021/03/06 02:36:15;;;;;;;6.17;4.70;;;5.90;47.20;;;;;;5068345;28;20786;-42
2021/03/06 02:38:44;;;;;;;5.97;4.70;;;5.80;47.70;;;;;;5070662;28;20917;-42
2021/03/06 02:41:11;;;;;;;4.97;4.50;;;5.80;47.20;;;;;;5066784;28;20448;-42
2021/03/06 02:43:37;;;;;;;8.47;5.00;;;5.70;47.00;;;;;;5056495;28;20789;-41
2021/03/06 02:46:07;;;;;;;4.50;4.10;;;5.60;46.90;;;;;;5071238;28;20438;-42
2021/03/06 02:48:35;;;;;;;7.73;4.60;;;5.60;47.20;;;;;;5071235;28;20245;-42
2021/03/06 02:51:01;;;;;;;5.80;4.13;;;5.50;47.20;;;;;;5070005;28;20453;-42
2021/03/06 02:53:27;;;;;;;4.60;3.90;;;5.50;47.20;;;;;;5070312;28;20428;-42
2021/03/06 02:55:53;;;;;;;3.67;3.37;;;5.50;47.30;;;;;;5067612;28;20518;-42
2021/03/06 02:58:45;;;;;;;4.27;3.87;;;5.50;47.50;;;;;;5062083;28;20687;-42
2021/03/06 03:01:21;;;;;;;5.40;4.13;;;5.50;47.50;;;;;;5069921;28;20217;-42
2021/03/06 03:03:53;;;;;;;5.30;4.13;;;5.50;47.30;;;;;;5057652;28;20434;-42
2021/03/06 03:06:33;;;;;;;5.57;4.43;;;5.40;47.40;;;;;;5069188;28;20439;-42
2021/03/06 03:09:12;;;;;;;7.70;4.33;;;5.50;47.50;;;;;;5070151;28;20514;-42
2021/03/06 03:11:56;;;;;;;4.00;3.47;;;5.40;47.70;;;;;;5065452;28;20446;-42
2021/03/06 03:14:28;;;;;;;4.20;3.53;;;5.40;47.50;;;;;;5061790;28;20480;-41
2021/03/06 03:17:02;;;;;;;9.90;4.17;;;5.40;47.40;;;;;;5066756;28;20648;-42
2021/03/06 03:19:33;;;;;;;4.40;4.00;;;5.40;47.00;;;;;;5069699;28;20492;-42
2021/03/06 03:22:02;;;;;;;4.40;3.57;;;5.40;47.20;;;;;;5068767;28;20990;-41
2021/03/06 03:24:34;;;;;;;6.50;4.73;;;5.30;47.30;;;;;;5067358;28;20434;-42
2021/03/06 03:27:01;;;;;;;5.83;4.90;;;5.30;47.00;;;;;;5062776;28;20446;-41
2021/03/06 03:29:29;;;;;;;4.70;3.80;;;5.30;46.60;;;;;;5067558;28;20879;-42
2021/03/06 03:31:55;;;;;;;5.33;4.53;;;5.30;46.50;;;;;;5051469;28;20430;-41
2021/03/06 03:34:23;;;;;;;5.63;4.70;;;5.20;46.60;;;;;;5066065;28;20452;-42
2021/03/06 03:36:51;;;;;;;6.00;4.13;;;5.20;46.70;;;;;;5060828;28;20433;-41
2021/03/06 03:39:17;;;;;;;4.50;3.53;;;5.10;46.70;;;;;;5062126;28;20509;-41
2021/03/06 03:41:45;;;;;;;4.03;3.63;;;5.10;46.70;;;;;;5070439;28;20615;-42
2021/03/06 03:44:11;;;;;;;5.73;4.33;;;5.10;47.00;;;;;;5070443;28;20325;-42
2021/03/06 03:46:39;;;;;;;3.90;3.60;;;5.10;46.80;;;;;;5064828;28;20950;-42
2021/03/06 03:49:09;;;;;;;4.57;3.80;;;5.10;47.30;;;;;;5069772;28;20437;-41
2021/03/06 03:51:37;;;;;;;8.60;4.10;;;5.00;47.10;;;;;;5065061;28;20448;-42
2021/03/06 03:54:03;;;;;;;7.20;4.70;;;5.00;46.90;;;;;;5069999;28;20442;-41
2021/03/06 03:56:29;;;;;;;8.17;4.97;;;5.00;46.70;;;;;;5063478;28;20823;-41
2021/03/06 03:58:55;;;;;;;6.13;5.53;;;4.90;47.10;;;;;;5068917;28;20496;-41
2021/03/06 04:01:20;;;;;;;5.03;3.93;;;4.90;47.90;;;;;;5061906;28;20210;-42
2021/03/06 04:03:46;;;;;;;5.13;3.87;;;4.90;48.60;;;;;;5074380;28;20187;-41
2021/03/06 04:06:11;;;;;;;5.87;4.10;;;4.90;48.90;;;;;;5069528;28;20207;-42
2021/03/06 04:08:37;;;;;;;5.03;3.70;;;4.90;48.50;;;;;;5070107;28;20589;-41
2021/03/06 04:11:03;;;;;;;5.03;3.80;;;4.90;48.10;;;;;;5068054;28;20202;-42
2021/03/06 04:13:28;;;;;;;5.00;4.03;;;4.90;47.80;;;;;;5063630;28;20245;-41
2021/03/06 04:15:54;;;;;;;4.80;4.03;;;4.80;47.40;;;;;;5073299;28;20242;-42
2021/03/06 04:18:19;;;;;;;4.40;4.00;;;4.90;47.30;;;;;;5071977;28;20220;-41
2021/03/06 04:20:45;;;;;;;4.80;4.03;;;4.80;46.80;;;;;;5074313;28;20219;-42
2021/03/06 04:23:11;;;;;;;4.27;3.87;;;4.90;46.70;;;;;;5073905;28;20199;-42
2021/03/06 04:25:37;;;;;;;6.60;4.57;;;4.80;46.60;;;;;;5073185;28;20707;-42
2021/03/06 04:28:02;;;;;;;7.27;4.63;;;4.80;47.00;;;;;;5065543;28;20253;-42
2021/03/06 04:30:28;;;;;;;5.43;4.73;;;4.80;47.70;;;;;;5072308;28;20475;-42
2021/03/06 04:32:54;;;;;;;6.47;5.77;;;4.70;48.50;;;;;;5071732;28;20188;-42
2021/03/06 04:35:19;;;;;;;6.47;5.10;;;4.70;48.60;;;;;;5072789;28;20192;-42
2021/03/06 04:37:45;;;;;;;6.73;5.73;;;4.60;48.80;;;;;;5070809;28;20228;-42
2021/03/06 04:40:13;;;;;;;7.77;5.90;;;4.60;48.90;;;;;;5067465;28;20214;-41
2021/03/06 04:42:39;;;;;;;6.40;5.30;;;4.50;49.00;;;;;;5073624;28;20430;-42
2021/03/06 04:45:06;;;;;;;7.27;5.03;;;4.40;49.30;;;;;;5072076;28;20505;-41
2021/03/06 04:47:32;;;;;;;4.97;4.50;;;4.40;49.20;;;;;;5065394;28;20434;-42
2021/03/06 04:49:58;;;;;;;5.90;4.07;;;4.40;49.30;;;;;;5073101;28;20483;-42
2021/03/06 04:52:23;;;;;;;6.10;4.73;;;4.30;49.30;;;;;;5072959;28;20203;-41
2021/03/06 04:54:49;;;;;;;5.10;4.20;;;4.30;49.40;;;;;;5069890;28;20236;-42
2021/03/06 04:57:15;;;;;;;5.57;4.20;;;4.30;49.10;;;;;;5066896;28;20234;-42
2021/03/06 04:59:44;;;;;;;5.03;4.33;;;4.20;49.00;;;;;;5069948;28;20521;-41
2021/03/06 05:02:10;;;;;;;4.20;3.80;;;4.20;48.70;;;;;;5071330;28;20211;-41
2021/03/06 05:04:36;;;;;;;4.27;3.87;;;4.20;48.80;;;;;;5071358;28;20453;-41
2021/03/06 05:07:02;;;;;;;7.37;5.20;;;4.20;48.70;;;;;;5071718;28;20430;-41
2021/03/06 05:09:28;;;;;;;5.30;4.80;;;4.20;48.90;;;;;;5071985;28;20572;-42
2021/03/06 05:11:54;;;;;;;6.23;5.63;;;4.20;49.10;;;;;;5071027;28;21069;-41
2021/03/06 05:14:20;;;;;;;4.80;4.30;;;4.20;49.80;;;;;;5054969;28;20188;-42
2021/03/06 05:16:46;;;;;;;6.33;4.30;;;4.10;49.50;;;;;;5071220;28;20188;-41
2021/03/06 05:19:12;;;;;;;5.57;4.50;;;3.70;49.70;;;;;;5068805;28;20956;-41
2021/03/06 05:21:38;;;;;;;6.70;4.47;;;3.60;50.20;;;;;;5071962;28;20200;-42
2021/03/06 05:24:05;;;;;;;4.67;4.20;;;3.70;50.20;;;;;;5072766;28;20446;-41
2021/03/06 05:26:30;;;;;;;9.60;4.27;;;3.70;50.20;;;;;;5072933;28;20769;-41
2021/03/06 05:28:56;;;;;;;5.90;4.60;;;3.70;49.90;;;;;;5072644;28;20436;-42
2021/03/06 05:31:22;;;;;;;4.97;4.47;;;3.70;50.00;;;;;;5071713;28;20318;-41
2021/03/06 05:33:47;;;;;;;9.10;4.60;;;3.70;50.00;;;;;;5052935;28;20188;-41
2021/03/06 05:36:13;;;;;;;6.40;4.77;;;3.60;49.90;;;;;;5071508;28;20243;-41
2021/03/06 05:38:39;;;;;;;7.17;4.70;;;3.60;49.70;;;;;;5072105;28;20311;-41
2021/03/06 05:41:05;;;;;;;6.50;4.07;;;3.60;49.70;;;;;;5069692;28;20226;-41
2021/03/06 05:43:31;;;;;;;5.43;4.30;;;3.60;50.00;;;;;;5072778;28;20789;-41
2021/03/06 05:45:56;;;;;;;5.43;4.10;;;3.60;50.10;;;;;;5067207;28;20199;-41
2021/03/06 05:48:22;;;;;;;4.97;4.20;;;3.70;49.80;;;;;;5071976;28;20200;-41
2021/03/06 05:50:49;;;;;;;5.23;4.70;;;3.70;49.60;;;;;;5066943;28;20192;-41
2021/03/06 05:53:15;;;;;;;5.37;4.00;;;3.70;49.70;;;;;;5065537;28;20617;-41
2021/03/06 05:55:50;;;;;;;5.77;4.53;;;3.70;49.80;;;;;;5070251;28;20470;-42
2021/03/06 05:58:21;;;;;;;5.83;5.23;;;3.60;49.90;;;;;;5072253;28;20219;-42
2021/03/06 06:00:47;;;;;;;5.87;5.37;;;3.70;50.00;;;;;;5071955;28;20448;-41
2021/03/06 06:03:16;;;;;;;6.60;4.77;;;3.70;50.10;;;;;;5053107;28;20439;-41
2021/03/06 06:05:42;;;;;;;5.67;4.57;;;3.60;50.00;;;;;;5071354;28;20437;-41
2021/03/06 06:08:09;;;;;;;4.60;3.93;;;3.70;49.70;;;;;;5069530;28;20433;-41
2021/03/06 06:10:35;;;;;;;6.00;4.67;;;3.70;49.40;;;;;;5067012;28;20203;-41
2021/03/06 06:13:01;;;;;;;6.73;4.47;;;3.70;49.10;;;;;;5061687;28;20448;-42
2021/03/06 06:15:27;;;;;;;7.20;4.47;;;3.70;50.20;;;;;;5071813;28;20900;-42
2021/03/06 06:17:54;;;;;;;5.33;4.70;;;4.10;53.30;;;;;;5072277;28;20640;-42
2021/03/06 06:20:22;;;;;;;6.70;4.43;;;4.60;53.40;;;;;;5069762;28;20445;-42
2021/03/06 06:22:48;;;;;;;3.83;3.33;;;5.00;52.40;;;;;;5072167;28;20449;-42
2021/03/06 06:25:32;;;;;;;5.20;4.27;;;5.30;50.90;;;;;;5066476;28;20443;-42
2021/03/06 06:28:02;;;;;;;8.33;4.87;;;5.70;48.20;;;;;;5069977;28;20196;-42
2021/03/06 06:30:28;;;;;;;5.37;4.87;;;5.90;47.00;;;;;;5069877;28;20470;-42
2021/03/06 06:32:54;;;;;;;6.67;4.57;;;6.10;46.90;;;;;;5062530;28;21062;-42
2021/03/06 06:35:20;;;;;;;9.57;6.03;;;6.30;46.00;;;;;;5067842;28;20200;-42
2021/03/06 06:38:14;;;;;;;6.80;5.10;;;6.40;45.60;;;;;;5070702;28;20203;-42
2021/03/06 06:40:40;;;;;;;6.83;6.23;;;6.60;46.00;;;;;;5049543;28;20262;-42
2021/03/06 06:43:23;;;;;;;5.33;4.80;;;6.80;45.60;;;;;;5071315;28;20953;-42
2021/03/06 06:45:49;;;;;;;8.33;5.50;;;7.00;44.20;;;;;;5068441;28;20220;-42
2021/03/06 06:48:15;;;;;;;8.07;6.30;;;7.20;44.00;;;;;;5070924;28;20512;-42
2021/03/06 06:50:41;;;;;;;6.73;5.37;;;7.40;43.90;;;;;;5057814;28;20501;-42
2021/03/06 06:53:21;;;;;;;6.10;5.10;;;7.60;43.70;;;;;;5063084;28;20194;-42
2021/03/06 06:55:46;;;;;;;5.73;5.23;;;7.80;43.10;;;;;;5045289;28;20640;-42
2021/03/06 06:58:12;;;;;;;5.47;4.90;;;8.10;43.00;;;;;;5065983;28;20553;-42
2021/03/06 07:00:37;;;;;;;5.37;4.50;;;8.30;42.70;;;;;;5067984;28;20198;-42
2021/03/06 07:03:04;;;;;;;6.00;5.40;;;8.50;42.00;;;;;;5061358;28;20200;-42
2021/03/06 07:05:31;;;;;;;6.90;5.80;;;8.70;41.80;;;;;;5070966;28;20196;-42
2021/03/06 07:07:58;;;;;;;6.80;5.50;;;8.90;41.30;;;;;;5069134;28;20487;-43
2021/03/06 07:10:31;;;;;;;6.43;5.00;;;9.10;40.60;;;;;;5059857;28;20434;-42
2021/03/06 07:13:00;;;;;;;6.00;5.40;;;9.40;40.00;;;;;;5070809;28;20480;-42
2021/03/06 07:15:27;;;;;;;5.83;5.30;;;9.50;38.90;;;;;;5070331;28;20438;-42
2021/03/06 07:17:55;;;;;;;5.07;4.57;;;9.60;37.90;;;;;;5069326;28;20442;-42
2021/03/06 07:20:23;;;;;;;5.53;5.07;;;9.60;37.80;;;;;;5067996;28;20851;-43
2021/03/06 07:22:54;;;;;;;4.80;4.40;;;9.50;37.80;;;;;;5070735;28;20503;-42
2021/03/06 07:25:21;;;;;;;4.33;3.93;;;9.50;37.60;;;;;;5062642;28;20431;-42
2021/03/06 07:27:46;;;;;;;5.50;4.43;;;9.60;37.50;;;;;;5066532;28;20484;-43
2021/03/06 07:30:15;;;;;;;4.67;4.23;;;9.50;36.90;;;;;;5068585;28;20835;-43
2021/03/06 07:32:42;;;;;;;4.57;3.67;;;9.50;36.80;;;;;;5070263;28;20192;-43
2021/03/06 07:35:10;;;;;;;4.53;4.13;;;9.50;37.20;;;;;;5070131;28;20438;-43
2021/03/06 07:37:38;;;;;;;3.93;3.57;;;9.70;37.20;;;;;;5066170;28;20437;-43
2021/03/06 07:40:10;;;;;;;4.30;3.90;;;9.80;37.20;;;;;;5063289;28;21004;-43
2021/03/06 07:42:43;;;;;;;5.27;4.77;;;10.00;36.00;;;;;;5064722;28;20426;-43
2021/03/06 07:45:15;;;;;;;6.73;4.90;;;10.00;36.10;;;;;;5067773;28;20422;-43
2021/03/06 07:47:43;;;;;;;5.70;4.43;;;10.20;37.10;;;;;;5071690;28;20448;-43
2021/03/06 07:50:29;;;;;;;5.37;4.87;;;10.40;36.30;;;;;;5066926;28;20466;-43
2021/03/06 07:52:56;;;;;;;5.37;4.70;;;10.50;36.70;;;;;;5075338;28;20775;-43
2021/03/06 07:55:26;;;;;;;4.70;4.20;;;10.50;36.00;;;;;;5065869;28;20433;-43
2021/03/06 07:58:04;;;;;;;4.70;4.17;;;10.60;35.60;;;;;;5065519;28;20423;-43
2021/03/06 08:00:49;;;;;;;6.03;5.17;;;10.60;35.50;;;;;;5068455;28;20503;-43
2021/03/06 08:05:51;;;;;;;6.70;4.50;;;10.50;35.40;;;;;;5070105;28;20446;-43
2021/03/06 08:08:32;;;;;;;6.10;4.73;;;10.40;35.60;;;;;;5074477;28;20456;-43
2021/03/06 08:11:11;;;;;;;5.23;4.50;;;10.40;36.30;;;;;;5071033;28;20442;-43
2021/03/06 08:13:55;;;;;;;5.30;4.80;;;10.40;36.40;;;;;;5074340;28;20460;-43
2021/03/06 08:16:21;;;;;;;4.50;4.10;;;10.30;36.00;;;;;;5073331;28;20445;-43
2021/03/06 08:18:47;;;;;;;4.47;4.07;;;10.40;36.70;;;;;;5066384;28;20885;-43
2021/03/06 08:21:34;;;;;;;5.07;4.57;;;10.40;37.60;;;;;;5073325;28;20192;-43
2021/03/06 08:24:15;;;;;;;5.80;4.37;;;10.40;37.20;;;;;;5061607;28;20445;-43
2021/03/06 08:26:53;;;;;;;4.93;4.20;;;10.30;37.40;;;;;;5073948;28;20434;-43
2021/03/06 08:29:22;;;;;;;5.43;4.73;;;10.30;37.10;;;;;;5064189;28;21223;-44
2021/03/06 08:32:11;;;;;;;4.93;3.80;;;10.20;36.80;;;;;;5070143;28;20471;-43
2021/03/06 08:34:41;;;;;;;7.67;4.17;;;9.40;39.60;;;;;;5066670;28;20450;-43
2021/03/06 08:37:25;;;;;;;5.17;4.53;;;9.00;39.40;;;;;;5067725;28;20445;-43
2021/03/06 08:40:12;;;;;;;4.77;4.23;;;9.00;40.50;;;;;;5072209;28;20565;-43
2021/03/06 08:42:52;;;;;;;4.67;4.27;;;9.10;40.80;;;;;;5065818;28;20438;-43
2021/03/06 08:45:20;;;;;;;4.90;4.40;;;9.30;40.50;;;;;;5062885;28;20438;-42
2021/03/06 08:47:52;;;;;;;8.87;3.83;;;9.00;41.10;;;;;;5063797;28;20452;-42
2021/03/06 08:50:18;;;;;;;4.63;3.70;;;9.40;41.00;;;;;;5070904;28;20426;-42
2021/03/06 08:53:05;;;;;;;4.57;3.67;;;9.10;39.10;;;;;;5065312;28;20445;-42
2021/03/06 08:55:33;;;;;;;5.47;4.20;;;8.70;40.60;;;;;;5072179;28;20446;-43
2021/03/06 08:58:01;;;;;;;5.10;3.90;;;8.60;41.60;;;;;;5072348;28;20438;-42
2021/03/06 09:00:30;;;;;;;4.53;3.97;;;8.80;40.60;;;;;;5071462;28;20432;-42
2021/03/06 09:02:57;;;;;;;5.33;4.10;;;9.10;40.60;;;;;;5050810;28;20953;-42
2021/03/06 09:05:22;;;;;;;3.93;3.30;;;8.90;39.60;;;;;;5071493;28;20903;-42
2021/03/06 09:07:50;;;;;;;4.23;3.70;;;9.10;39.00;;;;;;5062970;28;20466;-42
2021/03/06 09:10:23;;;;;;;4.57;3.87;;;9.10;39.00;;;;;;5047093;28;20636;-42
2021/03/06 09:12:52;;;;;;;3.83;3.40;;;9.50;38.80;;;;;;5067325;28;20790;-42
2021/03/06 09:15:34;;;;;;;4.50;4.10;;;9.40;38.40;;;;;;5069039;28;20470;-43
2021/03/06 09:18:01;;;;;;;5.93;4.47;;;9.50;38.00;;;;;;5071978;28;20929;-44
2021/03/06 09:20:30;;;;;;;4.57;3.80;;;9.70;38.10;;;;;;5067417;28;20438;-44
2021/03/06 09:22:56;;;;;;;4.30;3.77;;;9.70;37.70;;;;;;5072937;28;20430;-44
2021/03/06 09:25:39;;;;;;;4.23;3.83;;;9.80;37.60;;;;;;5070683;28;20434;-43
2021/03/06 09:28:11;;;;;;;4.13;3.23;;;10.00;35.40;;;;;;5068670;28;20438;-44
2021/03/06 09:30:39;;;;;;;3.93;3.63;;;10.10;36.00;;;;;;5070015;28;20492;-44
2021/03/06 09:33:39;;;;;;;5.10;3.90;;;10.20;36.20;;;;;;5069744;28;21087;-44
2021/03/06 09:36:16;;;;;;;4.00;3.70;;;10.20;36.50;;;;;;5069756;28;20435;-44
2021/03/06 09:38:56;;;;;;;3.97;3.57;;;10.40;34.80;;;;;;5070569;28;20489;-44
2021/03/06 09:41:28;;;;;;;6.70;3.43;;;10.50;35.00;;;;;;5066185;28;20817;-46
2021/03/06 09:43:55;;;;;;;5.60;3.87;;;10.70;35.70;;;;;;5066853;28;20936;-44
2021/03/06 09:46:31;;;;;;;4.93;3.90;;;10.80;35.10;;;;;;5069462;28;20530;-45
2021/03/06 09:49:01;;;;;;;4.90;4.40;;;11.00;33.90;;;;;;5063125;28;20940;-45
2021/03/06 09:51:46;;;;;;;4.50;4.10;;;11.40;34.60;;;;;;5061730;28;20473;-44
2021/03/06 09:54:15;;;;;;;4.07;3.67;;;11.30;33.20;;;;;;5066397;28;20529;-44
2021/03/06 09:56:48;;;;;;;4.30;3.93;;;11.30;32.90;;;;;;5067239;28;20472;-44
2021/03/06 09:59:14;;;;;;;4.10;3.70;;;11.30;33.40;;;;;;5063919;28;20921;-44
2021/03/06 10:01:39;;;;;;;5.87;4.53;;;11.60;32.80;;;;;;5067316;28;20433;-44
2021/03/06 10:04:13;;;;;;;4.30;3.90;;;11.50;31.90;;;;;;5070401;28;20200;-42
2021/03/06 10:06:44;;;;;;;4.90;3.90;;;11.40;32.70;;;;;;5067515;28;20717;-44
2021/03/06 10:09:12;;;;;;;4.30;4.00;;;11.30;32.90;;;;;;5064035;28;20492;-42
2021/03/06 10:11:53;;;;;;;3.80;3.50;;;11.40;32.70;;;;;;5070412;28;20441;-44
2021/03/06 10:14:25;;;;;;;4.03;3.63;;;11.60;32.30;;;;;;5069370;28;20434;-44
2021/03/06 10:16:53;;;;;;;3.70;3.40;;;11.70;32.20;;;;;;5068804;28;20442;-44
2021/03/06 10:19:22;;;;;;;4.17;3.80;;;12.00;31.80;;;;;;5062653;28;20516;-44
2021/03/06 10:22:02;;;;;;;9.40;4.40;;;11.80;30.40;;;;;;5068182;28;20468;-42
2021/03/06 10:24:29;;;;;;;4.00;3.60;;;12.00;31.30;;;;;;5069089;28;20438;-41
2021/03/06 10:27:00;;;;;;;4.27;3.87;;;12.30;30.90;;;;;;5064516;28;20432;-42
2021/03/06 10:29:26;;;;;;;3.77;3.43;;;12.50;31.00;;;;;;5069601;28;20450;-45
2021/03/06 10:32:00;;;;;;;4.03;3.63;;;12.20;30.20;;;;;;5069501;28;20446;-44
2021/03/06 10:34:28;;;;;;;3.40;3.07;;;12.30;30.40;;;;;;5070329;28;20484;-44
2021/03/06 10:37:13;;;;;;;3.50;3.20;;;12.40;30.20;;;;;;5068300;28;20453;-42
2021/03/06 10:40:01;;;;;;;3.73;3.40;;;12.70;30.10;;;;;;5069482;28;20569;-44
2021/03/06 10:42:41;;;;;;;3.67;3.37;;;12.60;29.00;;;;;;5058095;28;20446;-41
2021/03/06 10:45:26;;;;;;;4.07;3.43;;;12.20;29.10;;;;;;5060573;28;20439;-42
2021/03/06 10:47:54;;;;;;;3.73;3.37;;;12.40;31.10;;;;;;5066310;28;20437;-42
2021/03/06 10:50:26;;;;;;;4.40;3.47;;;12.80;30.70;;;;;;5067224;28;20433;-42
2021/03/06 10:53:11;;;;;;;3.40;3.10;;;12.90;29.40;;;;;;5068445;28;20437;-42
2021/03/06 10:55:37;;;;;;;3.70;3.30;;;13.20;29.20;;;;;;5065864;28;20430;-42
2021/03/06 10:58:03;;;;;;;3.63;3.33;;;13.40;29.00;;;;;;5070352;28;20438;-43
2021/03/06 11:00:29;;;;;;;3.33;3.03;;;13.50;28.70;;;;;;5068275;28;20814;-43
2021/03/06 11:03:00;;;;;;;3.70;3.30;;;13.40;27.90;;;;;;5065818;28;20460;-44
2021/03/06 11:05:27;;;;;;;3.90;3.37;;;13.60;28.00;;;;;;5057535;28;20431;-43
2021/03/06 11:07:54;;;;;;;4.50;3.63;;;13.20;27.70;;;;;;5067554;28;21022;-43
2021/03/06 11:10:21;;;;;;;3.67;3.20;;;13.30;28.00;;;;;;5067819;28;20446;-43
2021/03/06 11:12:52;;;;;;;5.57;3.60;;;13.70;28.20;;;;;;5063328;28;20862;-43
2021/03/06 11:15:20;;;;;;;7.00;2.90;;;14.00;28.00;;;;;;5065764;28;20807;-43
2021/03/06 11:17:57;;;;;;;4.13;3.53;;;14.30;26.90;;;;;;5068135;28;20442;-43
2021/03/06 11:20:28;;;;;;;4.70;3.63;;;14.40;26.90;;;;;;5058212;28;20447;-44
2021/03/06 11:22:54;;;;;;;5.00;3.40;;;14.70;26.90;;;;;;5070865;28;20442;-43
2021/03/06 11:25:21;;;;;;;4.43;3.57;;;14.60;26.40;;;;;;5070270;28;20433;-43
2021/03/06 11:27:59;;;;;;;3.10;2.90;;;14.10;26.70;;;;;;5069226;28;20437;-43
2021/03/06 11:30:28;;;;;;;8.27;4.60;;;14.10;27.60;;;;;;5066514;28;20985;-43
2021/03/06 11:32:54;;;;;;;5.03;3.40;;;14.50;29.40;;;;;;5071514;28;20860;-43
2021/03/06 11:35:21;;;;;;;3.87;3.30;;;15.00;29.50;;;;;;5060932;28;20462;-44
2021/03/06 11:37:47;;;;;;;3.50;2.97;;;14.90;25.80;;;;;;5073600;28;20433;-43
2021/03/06 11:40:15;;;;;;;3.27;2.97;;;15.00;27.80;;;;;;5066304;28;20493;-44
2021/03/06 11:42:41;;;;;;;4.83;3.43;;;15.00;27.60;;;;;;5072272;28;20830;-43
2021/03/06 11:45:08;;;;;;;3.20;2.90;;;15.10;26.70;;;;;;5063949;28;20473;-43
2021/03/06 11:47:35;;;;;;;3.37;2.93;;;15.00;27.40;;;;;;5068484;28;20188;-43
2021/03/06 11:50:02;;;;;;;3.50;3.20;;;15.50;27.70;;;;;;5068107;28;20492;-44
2021/03/06 11:52:27;;;;;;;2.43;2.23;;;15.90;26.30;;;;;;5071774;28;20532;-44
2021/03/06 11:54:53;;;;;;;2.13;2.03;;;16.20;26.00;;;;;;5067912;28;21001;-43
2021/03/06 11:57:19;;;;;;;3.10;2.80;;;16.10;26.30;;;;;;5071431;28;20200;-43
2021/03/06 11:59:44;;;;;;;2.47;2.30;;;16.50;25.70;;;;;;5068652;28;20220;-43
2021/03/06 12:02:10;;;;;;;3.80;2.73;;;16.60;24.60;;;;;;5069113;28;20200;-43
2021/03/06 12:04:35;;;;;;;3.30;3.00;;;16.40;24.90;;;;;;5071581;28;20196;-43
2021/03/06 12:07:01;;;;;;;3.20;2.90;;;16.20;24.20;;;;;;5068519;28;20270;-43
2021/03/06 12:09:27;;;;;;;2.70;2.40;;;15.80;25.90;;;;;;5068274;28;20651;-43
2021/03/06 12:11:52;;;;;;;4.33;3.00;;;16.10;26.20;;;;;;5072575;28;20266;-43
2021/03/06 12:14:18;;;;;;;2.87;2.67;;;16.80;26.80;;;;;;5070864;28;20536;-43
2021/03/06 12:16:43;;;;;;;3.20;3.00;;;17.00;25.00;;;;;;5072317;28;20610;-43
2021/03/06 12:19:09;;;;;;;3.40;3.10;;;17.50;23.80;;;;;;5072370;28;20227;-43
2021/03/06 12:21:35;;;;;;;2.30;2.20;;;17.50;23.50;;;;;;5059535;28;20201;-43
2021/03/06 12:24:00;;;;;;;2.80;2.60;;;17.20;23.70;;;;;;5071343;28;20197;-43
2021/03/06 12:26:26;;;;;;;2.70;2.50;;;17.00;23.40;;;;;;5069060;28;20195;-43
2021/03/06 12:28:52;;;;;;;3.20;2.73;;;16.80;23.70;;;;;;5070503;28;20643;-43
2021/03/06 12:31:18;;;;;;;2.97;2.67;;;17.10;23.40;;;;;;5068291;28;20234;-44
2021/03/06 12:33:43;;;;;;;2.50;2.30;;;17.30;23.50;;;;;;5069227;28;20442;-44
2021/03/06 12:36:09;;;;;;;2.77;2.57;;;17.10;22.40;;;;;;5067878;28;20192;-45
2021/03/06 12:38:35;;;;;;;3.63;2.60;;;16.90;23.40;;;;;;5064649;28;20223;-42
2021/03/06 12:41:01;;;;;;;6.00;2.80;;;16.40;22.90;;;;;;5070793;28;20240;-43
2021/03/06 12:43:27;;;;;;;4.70;2.60;;;16.50;26.90;;;;;;5059133;28;20271;-44
2021/03/06 12:45:53;;;;;;;3.00;2.60;;;16.90;24.50;;;;;;5071957;28;20917;-44
2021/03/06 12:48:18;;;;;;;2.83;2.53;;;17.00;24.60;;;;;;5070944;28;20720;-45
2021/03/06 12:50:44;;;;;;;3.07;2.50;;;17.40;24.30;;;;;;5065531;28;20187;-44
2021/03/06 12:53:10;;;;;;;3.27;2.63;;;17.80;24.40;;;;;;5060885;28;20230;-45
2021/03/06 12:55:35;;;;;;;2.70;2.43;;;17.70;23.40;;;;;;5066661;28;20211;-44
2021/03/06 12:58:01;;;;;;;2.80;2.30;;;17.30;22.90;;;;;;5066451;28;20272;-44
2021/03/06 13:00:27;;;;;;;2.80;2.47;;;17.10;23.80;;;;;;5068012;28;20220;-44
2021/03/06 13:02:52;;;;;;;2.50;2.30;;;17.20;24.90;;;;;;5064766;28;20277;-45
2021/03/06 13:05:18;;;;;;;2.73;2.40;;;17.10;23.10;;;;;;5068338;28;20195;-44
2021/03/06 13:07:43;;;;;;;4.73;3.00;;;16.90;24.60;;;;;;5063207;28;20204;-45